createdAt,value
2022-11-23T00:01:19.771Z,97122.53
2022-11-23T00:03:54.402Z,97118.53
2022-11-23T00:06:23.795Z,97119.53
2022-11-23T00:08:52.796Z,97114.88
2022-11-23T00:11:22.772Z,97119.72
2022-11-23T00:13:51.251Z,97108.63
2022-11-23T00:16:24.596Z,97113.03
2022-11-23T00:18:55.785Z,97115.28
2022-11-23T00:21:25.490Z,97120.63
2022-11-23T00:23:53.764Z,97115.13
2022-11-23T00:26:22.508Z,97120.00
2022-11-23T00:28:50.647Z,97121.31
2022-11-23T00:31:20.891Z,97117.94
2022-11-23T00:33:52.627Z,97114.19
2022-11-23T00:36:23.298Z,97117.41
2022-11-23T00:38:54.331Z,97120.56
2022-11-23T00:41:22.986Z,97112.78
2022-11-23T00:43:51.146Z,97109.03
2022-11-23T00:46:21.510Z,97101.16
2022-11-23T00:48:51.055Z,97112.41
2022-11-23T00:51:22.962Z,97107.56
2022-11-23T00:53:51.625Z,97106.94
2022-11-23T00:56:21.668Z,97111.88
2022-11-23T00:58:50.777Z,97104.53
2022-11-23T01:01:20.413Z,97108.09
2022-11-23T01:03:50.360Z,97111.03
2022-11-23T01:06:20.507Z,97111.91
2022-11-23T01:08:52.137Z,97103.22
2022-11-23T01:11:21.720Z,97104.44
2022-11-23T01:13:50.123Z,97108.03
2022-11-23T01:16:24.069Z,97115.66
2022-11-23T01:18:54.484Z,97100.19
2022-11-23T01:21:22.897Z,97104.56
2022-11-23T01:23:53.088Z,97108.63
2022-11-23T01:26:21.853Z,97107.09
2022-11-23T01:28:50.590Z,97100.50
2022-11-23T01:31:20.606Z,97098.81
2022-11-23T01:33:48.748Z,97102.00
2022-11-23T01:36:19.843Z,97100.81
2022-11-23T01:38:48.811Z,97098.34
2022-11-23T01:41:20.674Z,97107.09
2022-11-23T01:43:49.183Z,97103.78
2022-11-23T01:46:17.534Z,97104.59
2022-11-23T01:48:48.089Z,97109.00
2022-11-23T01:51:18.316Z,97111.44
2022-11-23T01:53:47.560Z,97110.88
2022-11-23T01:56:20.640Z,97113.38
2022-11-23T01:58:51.921Z,97117.94
2022-11-23T02:01:20.737Z,97118.13
2022-11-23T02:03:49.821Z,97120.56
2022-11-23T02:06:21.689Z,97120.56
2022-11-23T02:08:50.277Z,97111.00
2022-11-23T02:11:20.269Z,97122.19
2022-11-23T02:13:50.344Z,97110.41
2022-11-23T02:16:19.697Z,97112.53
2022-11-23T02:18:50.019Z,97109.72
2022-11-23T02:21:18.541Z,97115.56
2022-11-23T02:23:53.937Z,97115.41
2022-11-23T02:26:24.882Z,97110.78
2022-11-23T02:28:57.347Z,97118.44
2022-11-23T02:31:25.769Z,97114.31
2022-11-23T02:33:53.966Z,97129.91
2022-11-23T02:36:32.111Z,97124.38
2022-11-23T02:39:01.268Z,97126.50
2022-11-23T02:41:36.662Z,97131.34
2022-11-23T02:44:05.554Z,97128.50
2022-11-23T02:46:33.989Z,97129.91
2022-11-23T02:49:02.212Z,97128.75
2022-11-23T02:51:31.002Z,97128.59
2022-11-23T02:53:59.386Z,97130.13
2022-11-23T02:56:27.866Z,97134.50
2022-11-23T02:58:57.351Z,97125.44
2022-11-23T03:01:26.044Z,97121.63
2022-11-23T03:03:54.138Z,97120.28
2022-11-23T03:06:22.464Z,97118.13
2022-11-23T03:08:50.716Z,97114.66
2022-11-23T03:11:19.175Z,97115.22
2022-11-23T03:13:47.267Z,97117.72
2022-11-23T03:16:17.662Z,97110.94
2022-11-23T03:18:45.716Z,97115.50
2022-11-23T03:21:14.120Z,97116.09
2022-11-23T03:23:42.270Z,97116.09
2022-11-23T03:26:13.193Z,97106.88
2022-11-23T03:28:41.707Z,97099.69
2022-11-23T03:31:10.246Z,97111.63
2022-11-23T03:33:39.889Z,97098.06
2022-11-23T03:36:09.230Z,97117.00
2022-11-23T03:38:37.346Z,97107.63
2022-11-23T03:41:05.923Z,97104.72
2022-11-23T03:43:34.044Z,97095.00
2022-11-23T03:46:02.481Z,97095.53
2022-11-23T03:48:30.934Z,97085.94
2022-11-23T03:51:00.675Z,97096.59
2022-11-23T03:53:28.914Z,97097.09
2022-11-23T03:55:58.496Z,97099.19
2022-11-23T03:58:27.031Z,97108.66
2022-11-23T04:00:55.793Z,97104.91
2022-11-23T04:03:24.073Z,97088.44
2022-11-23T04:05:52.416Z,97094.13
2022-11-23T04:08:22.173Z,97099.13
2022-11-23T04:10:50.507Z,97100.13
2022-11-23T04:13:18.847Z,97083.91
2022-11-23T04:15:47.228Z,97093.88
2022-11-23T04:18:15.404Z,97099.00
2022-11-23T04:20:43.865Z,97103.88
2022-11-23T04:23:13.686Z,97102.84
2022-11-23T04:25:43.572Z,97099.59
2022-11-23T04:28:11.725Z,97108.47
2022-11-23T04:30:40.279Z,97106.28
2022-11-23T04:33:08.392Z,97106.00
2022-11-23T04:35:37.745Z,97103.09
2022-11-23T04:38:05.851Z,97106.81
2022-11-23T04:40:34.359Z,97111.97
2022-11-23T04:43:04.214Z,97108.25
2022-11-23T04:45:32.593Z,97110.06
2022-11-23T04:48:00.826Z,97110.31
2022-11-23T04:50:29.316Z,97109.53
2022-11-23T04:52:57.571Z,97110.88
2022-11-23T04:55:26.003Z,97111.97
2022-11-23T04:57:54.146Z,97101.44
2022-11-23T05:00:24.301Z,97108.31
2022-11-23T05:02:52.639Z,97095.72
2022-11-23T05:05:21.498Z,97096.53
2022-11-23T05:07:49.812Z,97105.31
2022-11-23T05:10:18.615Z,97115.53
2022-11-23T05:12:47.043Z,97104.84
2022-11-23T05:15:15.912Z,97103.56
2022-11-23T05:17:45.467Z,97106.59
2022-11-23T05:20:14.262Z,97105.47
2022-11-23T05:22:42.700Z,97094.38
2022-11-23T05:25:11.526Z,97098.38
2022-11-23T05:27:39.567Z,97094.03
2022-11-23T05:30:09.419Z,97101.91
2022-11-23T05:32:37.535Z,97101.34
2022-11-23T05:35:08.860Z,97097.41
2022-11-23T05:37:37.228Z,97102.97
2022-11-23T05:40:06.675Z,97101.94
2022-11-23T05:42:34.980Z,97105.50
2022-11-23T05:45:07.374Z,97103.31
2022-11-23T05:47:38.328Z,97104.94
2022-11-23T05:50:10.101Z,97099.66
2022-11-23T05:52:40.668Z,97099.06
2022-11-23T05:55:09.510Z,97097.22
2022-11-23T05:57:37.618Z,97106.94
2022-11-23T06:00:07.855Z,97103.44
2022-11-23T06:02:40.902Z,97100.72
2022-11-23T06:05:11.826Z,97098.56
2022-11-23T06:07:40.017Z,97108.59
2022-11-23T06:10:09.508Z,97111.81
2022-11-23T06:12:38.807Z,97124.56
2022-11-23T06:15:08.820Z,97128.34
2022-11-23T06:17:37.148Z,97138.91
2022-11-23T06:20:07.327Z,97140.78
2022-11-23T06:22:36.818Z,97145.94
2022-11-23T06:25:05.678Z,97144.03
2022-11-23T06:27:33.798Z,97148.81
2022-11-23T06:30:02.303Z,97150.94
2022-11-23T06:32:30.483Z,97148.22
2022-11-23T06:35:00.955Z,97149.91
2022-11-23T06:37:29.767Z,97156.97
2022-11-23T06:39:59.535Z,97148.91
2022-11-23T06:42:43.076Z,97158.63
2022-11-23T06:45:12.212Z,97150.00
2022-11-23T06:47:40.524Z,97155.38
2022-11-23T06:50:09.948Z,97156.78
2022-11-23T06:52:38.253Z,97152.09
2022-11-23T06:55:08.844Z,97153.81
2022-11-23T06:57:37.033Z,97148.91
2022-11-23T07:00:06.523Z,97152.16
2022-11-23T07:02:34.642Z,97152.09
2022-11-23T07:05:03.210Z,97146.66
2022-11-23T07:07:31.421Z,97149.41
2022-11-23T07:10:05.444Z,97148.03
2022-11-23T07:12:36.641Z,97143.47
2022-11-23T07:15:05.756Z,97145.31
2022-11-23T07:17:34.108Z,97147.97
2022-11-23T07:20:02.627Z,97146.03
2022-11-23T07:22:30.808Z,97144.13
2022-11-23T07:24:59.844Z,97157.44
2022-11-23T07:27:28.289Z,97156.06
2022-11-23T07:29:58.108Z,97162.91
2022-11-23T07:32:26.328Z,97161.81
2022-11-23T07:34:54.814Z,97169.88
2022-11-23T07:37:23.067Z,97170.66
2022-11-23T07:39:57.721Z,97174.47
2022-11-23T07:42:37.191Z,97181.19
2022-11-23T07:45:12.923Z,97179.44
2022-11-23T07:47:41.404Z,97178.88
2022-11-23T07:50:11.872Z,97174.72
2022-11-23T07:52:40.859Z,97171.19
2022-11-23T07:55:10.262Z,97179.47
2022-11-23T07:57:38.501Z,97182.19
2022-11-23T08:00:08.588Z,97182.38
2022-11-23T08:02:38.293Z,97184.91
2022-11-23T08:05:13.880Z,97187.09
2022-11-23T08:07:43.122Z,97177.63
2022-11-23T08:10:12.423Z,97180.34
2022-11-23T08:12:40.643Z,97181.97
2022-11-23T08:15:09.929Z,97179.00
2022-11-23T08:17:39.568Z,97168.41
2022-11-23T08:20:09.035Z,97180.34
2022-11-23T08:22:37.194Z,97176.28
2022-11-23T08:25:06.588Z,97168.63
2022-11-23T08:27:34.820Z,97172.72
2022-11-23T08:30:03.346Z,97172.22
2022-11-23T08:32:31.538Z,97173.28
2022-11-23T08:35:01.394Z,97173.75
2022-11-23T08:37:29.593Z,97172.50
2022-11-23T08:39:58.217Z,97170.88
2022-11-23T08:42:26.559Z,97163.56
2022-11-23T08:44:55.218Z,97160.03
2022-11-23T08:47:23.360Z,97162.72
2022-11-23T08:49:52.028Z,97160.25
2022-11-23T08:52:21.860Z,97153.50
2022-11-23T08:54:50.675Z,97147.78
2022-11-23T08:57:19.010Z,97152.63
2022-11-23T08:59:47.385Z,97161.00
2022-11-23T09:02:15.831Z,97162.09
2022-11-23T09:04:44.415Z,97154.88
2022-11-23T09:07:12.912Z,97154.06
2022-11-23T09:09:42.885Z,97154.59
2022-11-23T09:12:11.060Z,97157.03
2022-11-23T09:14:39.526Z,97155.97
2022-11-23T09:17:07.836Z,97143.22
2022-11-23T09:19:36.733Z,97158.38
2022-11-23T09:22:04.809Z,97166.53
2022-11-23T09:24:33.764Z,97158.16
2022-11-23T09:27:03.548Z,97153.47
2022-11-23T09:29:31.929Z,97157.84
2022-11-23T09:32:00.082Z,97158.91
2022-11-23T09:34:28.518Z,97157.59
2022-11-23T09:36:58.168Z,97145.13
2022-11-23T09:39:26.663Z,97144.03
2022-11-23T09:42:41.646Z,97152.31
2022-11-23T09:45:17.975Z,97151.09
2022-11-23T09:48:04.139Z,97148.84
2022-11-23T09:50:40.233Z,97141.78
2022-11-23T09:53:13.794Z,97129.16
2022-11-23T09:55:44.322Z,97139.75
2022-11-23T09:58:17.600Z,97140.34
2022-11-23T10:00:49.020Z,97129.78
2022-11-23T10:03:18.618Z,97134.47
2022-11-23T10:05:55.410Z,97129.88
2022-11-23T10:08:36.053Z,97125.44
2022-11-23T10:11:15.135Z,97116.06
2022-11-23T10:13:47.159Z,97110.84
2022-11-23T10:16:29.434Z,97115.91
2022-11-23T10:19:01.855Z,97105.63
2022-11-23T10:21:37.139Z,97097.28
2022-11-23T10:24:13.822Z,97100.22
2022-11-23T10:26:44.167Z,97104.09
2022-11-23T10:29:15.901Z,97102.06
2022-11-23T10:31:48.911Z,97102.41
2022-11-23T10:34:26.013Z,97098.59
2022-11-23T10:36:57.211Z,97095.78
2022-11-23T10:39:27.480Z,97102.25
2022-11-23T10:42:01.440Z,97100.03
2022-11-23T10:44:37.268Z,97098.59
2022-11-23T10:47:06.344Z,97101.53
2022-11-23T10:49:35.879Z,97091.34
2022-11-23T10:52:06.355Z,97094.41
2022-11-23T10:54:36.979Z,97087.56
2022-11-23T10:57:22.899Z,97088.38
2022-11-23T11:00:00.601Z,97087.28
2022-11-23T11:02:30.985Z,97080.69
2022-11-23T11:05:25.243Z,97081.44
2022-11-23T11:08:15.197Z,97085.13
2022-11-23T11:10:44.998Z,97080.50
2022-11-23T11:13:25.051Z,97087.53
2022-11-23T11:15:56.571Z,97077.19
2022-11-23T11:18:28.963Z,97077.28
2022-11-23T11:21:00.134Z,97080.88
2022-11-23T11:23:30.363Z,97075.81
2022-11-23T11:26:21.545Z,97078.97
2022-11-23T11:28:52.335Z,97079.25
2022-11-23T11:31:42.859Z,97083.84
2022-11-23T11:34:19.338Z,97090.69
2022-11-23T11:36:54.159Z,97068.97
2022-11-23T11:39:27.353Z,97077.72
2022-11-23T11:41:57.427Z,97065.94
2022-11-23T11:44:27.421Z,97064.72
2022-11-23T11:47:00.559Z,97064.69
2022-11-23T11:49:32.327Z,97055.66
2022-11-23T11:52:01.367Z,97067.31
2022-11-23T11:54:33.708Z,97066.00
2022-11-23T11:57:05.782Z,97088.53
2022-11-23T11:59:43.054Z,97090.59
2022-11-23T12:02:20.997Z,97083.22
2022-11-23T12:05:05.206Z,97083.94
2022-11-23T12:07:34.976Z,97082.91
2022-11-23T12:10:08.254Z,97088.63
2022-11-23T12:12:37.809Z,97087.28
2022-11-23T12:15:20.521Z,97088.69
2022-11-23T12:18:25.874Z,97087.59
2022-11-23T12:20:59.187Z,97090.00
2022-11-23T12:23:35.903Z,97087.72
2022-11-23T12:26:14.816Z,97095.34
2022-11-23T12:29:03.407Z,97093.06
2022-11-23T12:31:40.775Z,97098.50
2022-11-23T12:34:17.762Z,97112.00
2022-11-23T12:37:09.353Z,97105.59
2022-11-23T12:40:05.328Z,97107.06
2022-11-23T12:42:40.333Z,97110.53
2022-11-23T12:45:19.403Z,97116.63
2022-11-23T12:47:52.634Z,97116.63
2022-11-23T12:50:31.541Z,97107.56
2022-11-23T12:53:04.734Z,97110.16
2022-11-23T12:55:40.224Z,97124.84
2022-11-23T12:58:14.100Z,97117.69
2022-11-23T13:00:46.862Z,97119.53
2022-11-23T13:03:43.047Z,97126.72
2022-11-23T13:10:24.646Z,97133.75
2022-11-23T13:13:18.019Z,97127.25
2022-11-23T13:16:17.176Z,97129.91
2022-11-23T13:18:58.774Z,97127.78
2022-11-23T13:21:32.541Z,97126.72
2022-11-23T13:24:00.864Z,97120.75
2022-11-23T13:26:31.685Z,97120.97
2022-11-23T13:29:01.502Z,97122.38
2022-11-23T13:31:31.281Z,97118.88
2022-11-23T13:34:01.350Z,97130.97
2022-11-23T13:40:06.409Z,97127.19
2022-11-23T13:42:36.684Z,97122.63
2022-11-23T13:45:30.493Z,97129.38
2022-11-23T13:48:41.700Z,97128.25
2022-11-23T13:51:07.178Z,97127.16
2022-11-23T13:53:36.977Z,97129.03
2022-11-23T13:56:23.524Z,97132.25
2022-11-23T13:58:54.869Z,97123.44
2022-11-23T14:02:00.931Z,97124.31
2022-11-23T14:04:30.640Z,97121.28
2022-11-23T14:07:03.340Z,97132.13
2022-11-23T14:09:36.822Z,97129.34
2022-11-23T14:12:09.748Z,97147.03
2022-11-23T14:14:48.705Z,97148.66
2022-11-23T14:17:55.804Z,97148.38
2022-11-23T14:20:51.879Z,97140.78
2022-11-23T14:23:46.553Z,97140.28
2022-11-23T14:26:23.144Z,97145.38
2022-11-23T14:29:00.757Z,97152.19
2022-11-23T14:31:39.280Z,97150.84
2022-11-23T14:34:18.077Z,97150.81
2022-11-23T14:36:52.721Z,97148.94
2022-11-23T14:39:50.365Z,97151.09
2022-11-23T14:42:20.790Z,97145.41
2022-11-23T14:44:50.873Z,97159.03
2022-11-23T14:47:30.004Z,97159.78
2022-11-23T14:49:59.185Z,97162.19
2022-11-23T14:52:29.257Z,97178.63
2022-11-23T14:54:59.398Z,97178.06
2022-11-23T14:57:30.476Z,97172.78
2022-11-23T15:00:00.737Z,97174.66
2022-11-23T15:02:35.451Z,97177.63
2022-11-23T15:05:08.901Z,97178.16
2022-11-23T15:07:45.135Z,97178.19
2022-11-23T15:10:28.068Z,97181.94
2022-11-23T15:12:56.586Z,97181.41
2022-11-23T15:15:26.967Z,97171.63
2022-11-23T15:17:58.376Z,97170.88
2022-11-23T15:20:30.066Z,97176.03
2022-11-23T15:22:58.849Z,97169.53
2022-11-23T15:25:27.786Z,97172.75
2022-11-23T15:27:56.371Z,97166.81
2022-11-23T15:30:30.080Z,97168.97
2022-11-23T15:33:01.944Z,97170.56
2022-11-23T15:35:32.983Z,97177.38
2022-11-23T15:38:01.856Z,97186.88
2022-11-23T15:40:31.762Z,97172.22
2022-11-23T15:43:00.446Z,97170.56
2022-11-23T15:45:36.751Z,97170.31
2022-11-23T15:48:08.140Z,97168.16
2022-11-23T15:50:37.978Z,97177.66
2022-11-23T15:53:08.279Z,97183.78
2022-11-23T15:55:36.551Z,97177.34
2022-11-23T15:58:07.838Z,97177.63
2022-11-23T16:00:36.461Z,97179.81
2022-11-23T16:03:32.735Z,97187.38
2022-11-23T16:06:17.738Z,97187.91
2022-11-23T16:08:46.890Z,97190.06
2022-11-23T16:11:30.389Z,97187.09
2022-11-23T16:14:16.248Z,97183.03
2022-11-23T16:16:46.442Z,97193.63
2022-11-23T16:19:25.672Z,97192.28
2022-11-23T16:22:01.785Z,97190.06
2022-11-23T16:24:32.299Z,97180.06
2022-11-23T16:27:01.050Z,97199.22
2022-11-23T16:29:33.882Z,97193.34
2022-11-23T16:32:04.241Z,97194.97
2022-11-23T16:34:35.017Z,97201.47
2022-11-23T16:37:04.639Z,97205.13
2022-11-23T16:39:33.251Z,97205.38
2022-11-23T16:42:01.415Z,97207.38
2022-11-23T16:44:36.132Z,97202.56
2022-11-23T16:47:28.586Z,97204.47
2022-11-23T16:49:58.912Z,97205.28
2022-11-23T16:52:27.176Z,97193.91
2022-11-23T16:54:55.789Z,97200.63
2022-11-23T16:57:29.285Z,97202.03
2022-11-23T16:59:58.564Z,97197.97
2022-11-23T17:02:26.802Z,97196.31
2022-11-23T17:04:56.199Z,97205.50
2022-11-23T17:07:25.807Z,97212.03
2022-11-23T17:09:54.206Z,97212.63
2022-11-23T17:12:22.377Z,97198.41
2022-11-23T17:14:51.656Z,97198.19
2022-11-23T17:17:22.504Z,97203.34
2022-11-23T17:19:51.793Z,97208.69
2022-11-23T17:22:20.637Z,97204.28
2022-11-23T17:24:52.860Z,97204.19
2022-11-23T17:27:24.142Z,97209.31
2022-11-23T17:29:57.236Z,97213.66
2022-11-23T17:32:25.322Z,97217.28
2022-11-23T17:34:53.768Z,97206.13
2022-11-23T17:37:23.919Z,97196.56
2022-11-23T17:39:55.018Z,97201.72
2022-11-23T17:42:23.544Z,97194.94
2022-11-23T17:44:52.140Z,97198.22
2022-11-23T17:47:25.684Z,97206.63
2022-11-23T17:49:54.205Z,97208.09
2022-11-23T17:52:22.670Z,97207.44
2022-11-23T17:54:51.370Z,97203.91
2022-11-23T17:57:24.219Z,97203.91
2022-11-23T17:59:53.305Z,97209.34
2022-11-23T18:02:21.748Z,97211.78
2022-11-23T18:04:50.264Z,97216.94
2022-11-23T18:07:18.715Z,97216.66
2022-11-23T18:09:47.819Z,97217.72
2022-11-23T18:12:16.026Z,97221.53
2022-11-23T18:14:45.891Z,97218.81
2022-11-23T18:17:15.716Z,97219.28
2022-11-23T18:19:44.136Z,97215.38
2022-11-23T18:22:12.231Z,97221.25
2022-11-23T18:24:40.659Z,97209.97
2022-11-23T18:27:08.806Z,97221.47
2022-11-23T18:29:37.881Z,97235.41
2022-11-23T18:32:08.444Z,97227.91
2022-11-23T18:34:37.031Z,97224.41
2022-11-23T18:37:05.245Z,97225.31
2022-11-23T18:39:34.027Z,97218.16
2022-11-23T18:42:05.786Z,97215.53
2022-11-23T18:44:35.082Z,97212.53
2022-11-23T18:47:03.341Z,97219.75
2022-11-23T18:49:33.428Z,97215.56
2022-11-23T18:52:01.810Z,97221.47
2022-11-23T18:54:30.280Z,97223.00
2022-11-23T18:56:58.628Z,97227.75
2022-11-23T18:59:57.620Z,97226.94
2022-11-23T19:02:15.629Z,97233.38
2022-11-23T19:04:45.384Z,97231.81
2022-11-23T19:07:13.587Z,97227.69
2022-11-23T19:09:42.301Z,97220.94
2022-11-23T19:12:10.702Z,97221.47
2022-11-23T19:14:39.142Z,97209.94
2022-11-23T19:17:07.415Z,97218.63
2022-11-23T19:19:36.140Z,97220.81
2022-11-23T19:22:05.762Z,97217.13
2022-11-23T19:24:34.246Z,97217.59
2022-11-23T19:27:02.544Z,97219.59
2022-11-23T19:29:30.978Z,97215.41
2022-11-23T19:31:59.213Z,97209.00
2022-11-23T19:34:27.692Z,97211.78
2022-11-23T19:36:55.916Z,97209.06
2022-11-23T19:39:25.923Z,97213.13
2022-11-23T19:41:54.293Z,97216.31
2022-11-23T19:44:22.741Z,97210.53
2022-11-23T19:46:51.071Z,97204.16
2022-11-23T19:49:21.192Z,97213.03
2022-11-23T19:51:52.335Z,97219.84
2022-11-23T19:54:21.085Z,97216.59
2022-11-23T19:56:52.427Z,97218.81
2022-11-23T19:59:21.005Z,97222.38
2022-11-23T20:01:49.399Z,97232.91
2022-11-23T20:04:18.044Z,97231.63
2022-11-23T20:06:46.351Z,97226.88
2022-11-23T20:09:19.378Z,97238.81
2022-11-23T20:11:51.008Z,97227.47
2022-11-23T20:14:21.978Z,97229.91
2022-11-23T20:16:50.150Z,97244.75
2022-11-23T20:19:18.629Z,97240.75
2022-11-23T20:21:46.793Z,97245.13
2022-11-23T20:24:15.585Z,97255.09
2022-11-23T20:26:44.177Z,97241.59
2022-11-23T20:29:13.911Z,97246.72
2022-11-23T20:31:43.578Z,97243.19
2022-11-23T20:34:16.677Z,97233.72
2022-11-23T20:36:46.914Z,97243.75
2022-11-23T20:39:16.306Z,97242.66
2022-11-23T20:41:45.157Z,97249.63
2022-11-23T20:44:14.961Z,97248.28
2022-11-23T20:47:01.117Z,97246.44
2022-11-23T20:49:31.100Z,97238.25
2022-11-23T20:51:59.925Z,97243.22
2022-11-23T20:54:29.331Z,97239.44
2022-11-23T20:57:00.139Z,97245.03
2022-11-23T20:59:28.955Z,97247.25
2022-11-23T21:01:58.453Z,97256.50
2022-11-23T21:04:27.393Z,97251.88
2022-11-23T21:06:55.777Z,97262.09
2022-11-23T21:09:24.320Z,97256.88
2022-11-23T21:12:10.046Z,97255.91
2022-11-23T21:14:38.635Z,97250.72
2022-11-23T21:17:08.225Z,97258.41
2022-11-23T21:19:38.049Z,97266.50
2022-11-23T21:22:08.096Z,97266.81
2022-11-23T21:24:37.043Z,97268.66
2022-11-23T21:27:07.310Z,97274.88
2022-11-23T21:29:35.866Z,97262.41
2022-11-23T21:32:04.174Z,97277.31
2022-11-23T21:34:34.623Z,97282.81
2022-11-23T21:37:03.116Z,97281.38
2022-11-23T21:39:33.176Z,97279.75
2022-11-23T21:42:01.453Z,97287.66
2022-11-23T21:44:30.185Z,97283.06
2022-11-23T21:47:00.978Z,97282.78
2022-11-23T21:49:29.957Z,97284.94
2022-11-23T21:51:59.507Z,97285.78
2022-11-23T21:54:28.096Z,97285.94
2022-11-23T21:56:56.199Z,97282.50
2022-11-23T21:59:24.901Z,97283.31
2022-11-23T22:01:54.607Z,97283.06
2022-11-23T22:04:23.161Z,97288.47
2022-11-23T22:06:51.816Z,97285.72
2022-11-23T22:09:21.833Z,97287.09
2022-11-23T22:11:50.108Z,97291.34
2022-11-23T22:14:19.957Z,97293.78
2022-11-23T22:16:50.142Z,97295.47
2022-11-23T22:19:20.943Z,97293.03
2022-11-23T22:21:49.212Z,97293.03
2022-11-23T22:24:19.747Z,97292.22
2022-11-23T22:26:49.633Z,97278.41
2022-11-23T22:29:18.192Z,97281.34
2022-11-23T22:31:46.675Z,97282.47
2022-11-23T22:34:15.643Z,97277.09
2022-11-23T22:36:44.007Z,97280.03
2022-11-23T22:39:12.896Z,97278.16
2022-11-23T22:41:41.375Z,97279.00
2022-11-23T22:44:11.942Z,97280.06
2022-11-23T22:46:40.980Z,97287.41
2022-11-23T22:49:09.740Z,97284.44
2022-11-23T22:51:38.175Z,97286.31
2022-11-23T22:54:06.885Z,97288.75
2022-11-23T22:56:35.381Z,97287.13
2022-11-23T22:59:04.458Z,97288.19
2022-11-23T23:01:34.185Z,97293.91
2022-11-23T23:04:04.309Z,97285.22
2022-11-23T23:06:35.092Z,97287.13
2022-11-23T23:09:05.874Z,97284.97
2022-11-23T23:11:35.190Z,97285.75
2022-11-23T23:14:03.978Z,97285.25
2022-11-23T23:16:33.647Z,97282.78
2022-11-23T23:19:03.652Z,97284.97
2022-11-23T23:21:32.157Z,97286.59
2022-11-23T23:24:02.403Z,97289.31
2022-11-23T23:26:30.837Z,97286.31
2022-11-23T23:29:01.139Z,97295.00
2022-11-23T23:31:30.671Z,97293.38
2022-11-23T23:34:01.657Z,97297.16
2022-11-23T23:36:30.817Z,97290.94
2022-11-23T23:38:59.644Z,97284.16
2022-11-23T23:41:27.861Z,97276.81
2022-11-23T23:43:56.539Z,97284.41
2022-11-23T23:46:24.843Z,97278.72
2022-11-23T23:48:53.367Z,97280.63
2022-11-23T23:51:24.460Z,97282.50
2022-11-23T23:53:52.929Z,97276.66
2022-11-23T23:56:22.722Z,97274.09
2022-11-23T23:58:51.360Z,97279.81
